Main page
METAR-TAF:

METAR-TAF

Airports :

Mandalay International Airport

Mandalay, Myanmar

latitude: 21-59N, longitude: 096-06E, elevation: 74 m

Current weather observation

The report was made 57 minutes ago, at 23:30 UTC
Wind 4 kt from the West/Northwest
Temperature 19°C
Humidity 94%
Pressure 1011 hPa
Visibility: 4000 m
Few clouds at a height of 2000 ft
mist

METAR: VYMD 192330Z 30004KT 4000 BR FEW020 19/18 Q1011

Time: 06:57 (00:27 UTC)

Forecast

The report was made 1 hour and 27 minutes ago, at 23:00 UTC
Forecast valid from 20 at 00 UTC to 20 at 24 UTC
Wind 5 kt from the West/Northwest
Visibility: 6000 m
Few clouds at a height of 2000 ft
Becoming
from 20 at 00 UTC to 20 at 02 UTC
Wind 3 kt from the North/Northeast
Visibility: 4000 m
mist
Temporary
from 20 at 02 UTC to 20 at 06 UTC
Wind 4 kt from the North
Visibility: 6000 m
Few clouds at a height of 2000 ft

TAF: VYMD 192300Z 2000/2024 30005KT 6000 FEW020 BECMG 2000/2002 02003KT 4000 BR TEMPO 2002/2006 36004KT 6000 FEW020

Weather observations and forecasts of more than 4000 airports (METAR and TAF reports).

The available stations are represented by yellow and red dots on the map.

Hover mouse over dot to see the name of the station.

Then click to see weather observations and forecasts.

To change the map : click on the green buttons with a black cross to zoom in, on the green button with a dash to zoom out, or on the green arrows for adjacent maps.


METAR-TAF: